createdAt,value
2023-05-20T00:00:29.238Z,57.11
2023-05-20T00:03:20.324Z,57.08
2023-05-20T00:05:51.565Z,57.16
2023-05-20T00:08:22.302Z,57.14
2023-05-20T00:10:53.226Z,57.23
2023-05-20T00:13:24.974Z,57.21
2023-05-20T00:15:55.899Z,57.15
2023-05-20T00:18:26.965Z,57.20
2023-05-20T00:20:58.094Z,57.17
2023-05-20T00:23:29.042Z,57.14
2023-05-20T00:26:00.994Z,57.20
2023-05-20T00:28:31.993Z,57.24
2023-05-20T00:31:02.860Z,57.15
2023-05-20T00:33:33.721Z,57.16
2023-05-20T00:36:04.927Z,57.25
2023-05-20T00:38:36.200Z,57.25
2023-05-20T00:41:07.218Z,57.23
2023-05-20T00:43:38.119Z,57.27
2023-05-20T00:46:09.358Z,57.24
2023-05-20T00:48:42.453Z,57.24
2023-05-20T00:51:14.289Z,57.27
2023-05-20T00:53:45.080Z,57.25
2023-05-20T00:56:16.341Z,57.28
2023-05-20T00:58:47.122Z,57.23
2023-05-20T01:01:17.988Z,57.30
2023-05-20T01:03:49.224Z,57.26
2023-05-20T01:06:20.038Z,57.30
2023-05-20T01:08:50.797Z,57.28
2023-05-20T01:11:27.746Z,57.38
2023-05-20T01:14:01.360Z,57.23
2023-05-20T01:16:34.255Z,57.30
2023-05-20T01:19:07.491Z,57.31
2023-05-20T01:21:38.509Z,57.27
2023-05-20T01:24:09.185Z,57.33
2023-05-20T01:26:40.025Z,57.27
2023-05-20T01:29:13.979Z,57.40
2023-05-20T01:31:44.849Z,57.30
2023-05-20T01:34:16.345Z,57.41
2023-05-20T01:36:47.757Z,57.45
2023-05-20T01:39:18.595Z,57.46
2023-05-20T01:41:51.071Z,57.41
2023-05-20T01:44:22.216Z,57.39
2023-05-20T01:46:53.299Z,57.42
2023-05-20T01:49:24.171Z,57.48
2023-05-20T01:51:55.029Z,57.36
2023-05-20T01:54:26.462Z,57.42
2023-05-20T01:56:57.301Z,57.45
2023-05-20T01:59:28.324Z,57.39
2023-05-20T02:01:59.161Z,57.41
2023-05-20T02:04:29.998Z,57.54
2023-05-20T02:07:00.901Z,57.49
2023-05-20T02:09:31.738Z,57.49
2023-05-20T02:12:02.655Z,57.50
2023-05-20T02:14:33.598Z,57.47
2023-05-20T02:17:04.633Z,57.49
2023-05-20T02:19:35.378Z,57.56
2023-05-20T02:22:06.408Z,57.54
2023-05-20T02:24:37.269Z,57.52
2023-05-20T02:27:08.326Z,57.53
2023-05-20T02:29:39.133Z,57.53
2023-05-20T02:32:10.224Z,57.55
2023-05-20T02:34:41.063Z,57.64
2023-05-20T02:37:11.950Z,57.63
2023-05-20T02:39:42.862Z,57.58
2023-05-20T02:42:13.622Z,57.55
2023-05-20T02:44:44.509Z,57.55
2023-05-20T02:47:16.950Z,57.54
2023-05-20T02:49:47.909Z,57.60
2023-05-20T02:52:18.870Z,57.49
2023-05-20T02:54:49.909Z,57.54
2023-05-20T02:57:20.872Z,57.60
2023-05-20T02:59:52.558Z,57.66
2023-05-20T03:02:25.293Z,57.71
2023-05-20T03:04:56.280Z,57.61
2023-05-20T03:07:27.347Z,57.67
2023-05-20T03:09:59.202Z,57.69
2023-05-20T03:12:30.055Z,57.59
2023-05-20T03:15:01.357Z,57.67
2023-05-20T03:17:32.589Z,57.76
2023-05-20T03:20:07.449Z,57.67
2023-05-20T03:22:38.381Z,57.74
2023-05-20T03:25:09.986Z,57.67
2023-05-20T03:27:41.969Z,57.65
2023-05-20T03:30:13.896Z,57.60
2023-05-20T03:32:44.948Z,57.72
2023-05-20T03:35:15.980Z,57.74
2023-05-20T03:37:46.928Z,57.72
2023-05-20T03:40:18.332Z,57.81
2023-05-20T03:42:51.041Z,57.69
2023-05-20T03:45:23.504Z,57.76
2023-05-20T03:48:07.507Z,57.74
2023-05-20T03:50:39.262Z,57.73
2023-05-20T03:53:10.577Z,57.69
2023-05-20T03:55:44.274Z,57.77
2023-05-20T03:58:16.872Z,57.70
2023-05-20T04:00:48.070Z,57.70
2023-05-20T04:03:19.377Z,57.77
2023-05-20T04:05:50.527Z,57.77
2023-05-20T04:08:26.079Z,57.79
2023-05-20T04:10:58.634Z,57.82
2023-05-20T04:13:29.437Z,57.76
2023-05-20T04:16:02.118Z,57.82
2023-05-20T04:18:33.502Z,57.75
2023-05-20T04:21:04.879Z,57.86
2023-05-20T04:23:36.019Z,57.98
2023-05-20T04:26:07.334Z,57.94
2023-05-20T04:28:39.124Z,57.93
2023-05-20T04:31:10.793Z,57.96
2023-05-20T04:33:42.710Z,57.98
2023-05-20T04:36:16.712Z,57.96
2023-05-20T04:38:48.440Z,58.07
2023-05-20T04:41:19.517Z,57.92
2023-05-20T04:43:50.716Z,58.05
2023-05-20T04:46:21.510Z,58.11
2023-05-20T04:48:52.189Z,58.08
2023-05-20T04:51:23.030Z,58.01
2023-05-20T04:53:55.828Z,58.04
2023-05-20T04:56:26.620Z,58.13
2023-05-20T04:58:57.414Z,58.03
2023-05-20T05:01:28.191Z,57.98
2023-05-20T05:03:59.031Z,58.03
2023-05-20T05:06:29.835Z,58.08
2023-05-20T05:09:02.353Z,58.11
2023-05-20T05:11:33.785Z,58.09
2023-05-20T05:14:04.827Z,58.15
2023-05-20T05:16:35.907Z,58.06
2023-05-20T05:19:07.508Z,58.12
2023-05-20T05:21:39.062Z,58.10
2023-05-20T05:24:10.108Z,58.15
2023-05-20T05:26:41.030Z,58.18
2023-05-20T05:29:11.956Z,58.22
2023-05-20T05:31:43.106Z,58.12
2023-05-20T05:34:14.163Z,58.16
2023-05-20T05:36:45.086Z,58.17
2023-05-20T05:39:16.418Z,58.11
2023-05-20T05:41:48.087Z,58.12
2023-05-20T05:44:19.181Z,58.18
2023-05-20T05:46:50.658Z,58.13
2023-05-20T05:49:21.549Z,58.22
2023-05-20T05:51:53.075Z,58.16
2023-05-20T05:54:23.974Z,58.19
2023-05-20T05:56:56.764Z,58.14
2023-05-20T05:59:28.291Z,58.21
2023-05-20T06:01:59.212Z,58.18
2023-05-20T06:04:30.106Z,58.20
2023-05-20T06:07:02.373Z,58.21
2023-05-20T06:09:33.802Z,58.09
2023-05-20T06:12:08.178Z,58.19
2023-05-20T06:14:39.093Z,58.20
2023-05-20T06:17:09.852Z,58.17
2023-05-20T06:19:41.123Z,58.07
2023-05-20T06:22:12.890Z,58.11
2023-05-20T06:24:44.296Z,58.08
2023-05-20T06:27:16.613Z,58.17
2023-05-20T06:29:47.521Z,58.18
2023-05-20T06:32:18.470Z,58.17
2023-05-20T06:34:49.812Z,58.19
2023-05-20T06:37:24.593Z,58.22
2023-05-20T06:39:56.155Z,58.24
2023-05-20T06:42:26.935Z,58.17
2023-05-20T06:45:10.526Z,58.07
2023-05-20T06:47:48.113Z,58.27
2023-05-20T06:50:19.161Z,58.08
2023-05-20T06:52:49.987Z,58.17
2023-05-20T06:55:21.360Z,58.13
2023-05-20T06:57:52.307Z,58.12
2023-05-20T07:00:23.619Z,58.16
2023-05-20T07:02:55.283Z,58.14
2023-05-20T07:05:29.089Z,58.11
2023-05-20T07:07:59.964Z,58.01
2023-05-20T07:10:31.385Z,57.89
2023-05-20T07:13:02.220Z,57.82
2023-05-20T07:15:33.292Z,57.64
2023-05-20T07:18:04.532Z,57.67
2023-05-20T07:20:36.305Z,57.71
2023-05-20T07:23:10.760Z,57.73
2023-05-20T07:25:46.226Z,57.73
2023-05-20T07:28:18.459Z,57.52
2023-05-20T07:30:51.162Z,57.71
2023-05-20T07:33:25.174Z,57.74
2023-05-20T07:35:56.108Z,57.76
2023-05-20T07:38:27.287Z,57.68
2023-05-20T07:41:04.476Z,57.69
2023-05-20T07:43:35.782Z,57.59
2023-05-20T07:46:07.204Z,57.70
2023-05-20T07:48:38.057Z,57.59
2023-05-20T07:51:08.908Z,57.74
2023-05-20T07:53:40.794Z,57.63
2023-05-20T07:56:11.815Z,57.54
2023-05-20T07:58:44.203Z,57.49
2023-05-20T08:01:15.096Z,57.55
2023-05-20T08:03:46.377Z,57.65
2023-05-20T08:06:20.733Z,57.43
2023-05-20T08:08:54.347Z,57.50
2023-05-20T08:11:29.043Z,57.51
2023-05-20T08:14:00.273Z,57.51
2023-05-20T08:16:33.029Z,57.49
2023-05-20T08:19:04.086Z,57.47
2023-05-20T08:21:35.457Z,57.45
2023-05-20T08:24:08.661Z,57.52
2023-05-20T08:26:40.020Z,57.30
2023-05-20T08:29:10.830Z,57.05
2023-05-20T08:31:41.693Z,57.03
2023-05-20T08:34:12.792Z,57.13
2023-05-20T08:36:45.317Z,57.12
2023-05-20T08:39:16.687Z,57.21
2023-05-20T08:41:49.052Z,57.34
2023-05-20T08:44:20.562Z,57.30
2023-05-20T08:46:52.281Z,57.21
2023-05-20T08:49:23.449Z,57.16
2023-05-20T08:51:54.459Z,57.15
2023-05-20T08:54:26.838Z,57.10
2023-05-20T08:56:57.719Z,57.14
2023-05-20T08:59:28.511Z,57.06
2023-05-20T09:01:59.341Z,56.90
2023-05-20T09:04:30.236Z,56.75
2023-05-20T09:07:01.121Z,56.93
2023-05-20T09:09:32.345Z,56.93
2023-05-20T09:12:04.235Z,56.92
2023-05-20T09:14:35.001Z,56.89
2023-05-20T09:17:08.546Z,56.82
2023-05-20T09:19:39.332Z,56.79
2023-05-20T09:22:10.171Z,56.54
2023-05-20T09:24:41.419Z,56.44
2023-05-20T09:27:12.290Z,56.46
2023-05-20T09:29:43.868Z,56.26
2023-05-20T09:32:14.867Z,56.16
2023-05-20T09:34:47.637Z,56.26
2023-05-20T09:37:19.391Z,56.10
2023-05-20T09:39:59.758Z,56.11
2023-05-20T09:42:34.772Z,56.01
2023-05-20T09:45:06.339Z,56.07
2023-05-20T09:47:37.463Z,56.02
2023-05-20T09:50:09.489Z,56.04
2023-05-20T09:52:40.900Z,55.99
2023-05-20T09:55:11.912Z,56.08
2023-05-20T09:57:43.269Z,55.90
2023-05-20T10:00:17.431Z,55.93
2023-05-20T10:02:49.002Z,55.91
2023-05-20T10:05:21.318Z,55.85
2023-05-20T10:08:03.103Z,55.73
2023-05-20T10:10:39.498Z,55.67
2023-05-20T10:13:15.815Z,55.72
2023-05-20T10:15:52.453Z,55.63
2023-05-20T10:18:31.436Z,55.64
2023-05-20T10:21:02.320Z,55.61
2023-05-20T10:23:33.130Z,55.60
2023-05-20T10:26:07.682Z,55.30
2023-05-20T10:28:38.949Z,55.63
2023-05-20T10:31:18.325Z,55.60
2023-05-20T10:33:49.935Z,55.61
2023-05-20T10:36:27.871Z,55.63
2023-05-20T10:38:59.487Z,55.59
2023-05-20T10:41:30.718Z,54.86
2023-05-20T10:44:05.480Z,55.07
2023-05-20T10:46:53.860Z,55.25
2023-05-20T10:49:34.669Z,55.24
2023-05-20T10:52:05.646Z,55.14
2023-05-20T10:54:38.449Z,55.11
2023-05-20T10:57:10.504Z,55.06
2023-05-20T10:59:41.936Z,54.87
2023-05-20T11:02:13.804Z,54.97
2023-05-20T11:04:45.970Z,54.79
2023-05-20T11:07:25.618Z,54.90
2023-05-20T11:09:56.629Z,54.84
2023-05-20T11:12:28.108Z,53.74
2023-05-20T11:14:58.959Z,54.41
2023-05-20T11:17:29.769Z,54.37
2023-05-20T11:20:01.249Z,54.52
2023-05-20T11:22:31.933Z,54.57
2023-05-20T11:25:06.259Z,54.21
2023-05-20T11:27:40.103Z,54.40
2023-05-20T11:30:12.720Z,54.09
2023-05-20T11:32:43.571Z,52.55
2023-05-20T11:35:23.667Z,53.68
2023-05-20T11:37:58.744Z,53.75
2023-05-20T11:40:38.961Z,53.80
2023-05-20T11:43:17.614Z,53.85
2023-05-20T11:45:49.350Z,53.52
2023-05-20T11:48:20.430Z,53.67
2023-05-20T11:50:51.239Z,53.47
2023-05-20T11:53:22.753Z,53.52
2023-05-20T11:55:54.503Z,53.53
2023-05-20T11:58:26.032Z,53.42
2023-05-20T12:01:05.129Z,53.31
2023-05-20T12:03:44.724Z,53.40
2023-05-20T12:06:15.668Z,53.41
2023-05-20T12:08:46.582Z,53.37
2023-05-20T12:11:17.573Z,53.26
2023-05-20T12:13:48.461Z,53.03
2023-05-20T12:16:19.390Z,53.19
2023-05-20T12:18:50.370Z,53.01
2023-05-20T12:21:21.305Z,53.00
2023-05-20T12:23:57.812Z,52.97
2023-05-20T12:26:30.318Z,52.70
2023-05-20T12:29:01.216Z,52.78
2023-05-20T12:31:34.674Z,52.82
2023-05-20T12:34:06.012Z,52.66
2023-05-20T12:36:37.974Z,52.59
2023-05-20T12:39:09.610Z,52.64
2023-05-20T12:41:40.518Z,52.47
2023-05-20T12:44:11.314Z,52.51
2023-05-20T12:46:42.141Z,52.54
2023-05-20T12:49:12.895Z,52.43
2023-05-20T12:51:43.765Z,52.33
2023-05-20T12:54:14.737Z,52.45
2023-05-20T12:56:47.608Z,52.27
2023-05-20T12:59:18.439Z,51.69
2023-05-20T13:01:49.569Z,52.08
2023-05-20T13:04:20.344Z,52.10
2023-05-20T13:06:51.222Z,51.97
2023-05-20T13:09:22.019Z,51.96
2023-05-20T13:11:52.766Z,51.45
2023-05-20T13:14:23.517Z,51.53
2023-05-20T13:16:55.305Z,51.42
2023-05-20T13:19:26.264Z,51.76
2023-05-20T13:21:57.369Z,51.47
2023-05-20T13:24:28.288Z,51.62
2023-05-20T13:26:59.157Z,51.59
2023-05-20T13:29:29.883Z,51.08
2023-05-20T13:32:02.089Z,51.53
2023-05-20T13:34:33.147Z,51.51
2023-05-20T13:37:04.057Z,51.46
2023-05-20T13:39:34.971Z,51.13
2023-05-20T13:42:05.956Z,50.48
2023-05-20T13:44:36.820Z,50.89
2023-05-20T13:47:07.820Z,51.21
2023-05-20T13:49:38.582Z,50.92
2023-05-20T13:52:09.439Z,50.83
2023-05-20T13:54:40.667Z,51.06
2023-05-20T13:57:11.445Z,51.04
2023-05-20T13:59:42.245Z,50.99
2023-05-20T14:02:13.168Z,50.90
2023-05-20T14:04:45.114Z,50.92
2023-05-20T14:07:15.990Z,50.78
2023-05-20T14:09:46.827Z,51.00
2023-05-20T14:12:17.659Z,50.97
2023-05-20T14:14:48.478Z,50.86
2023-05-20T14:17:19.153Z,50.37
2023-05-20T14:19:49.831Z,50.55
2023-05-20T14:22:20.631Z,50.82
2023-05-20T14:24:51.439Z,50.82
2023-05-20T14:27:22.380Z,50.76
2023-05-20T14:29:53.214Z,50.59
2023-05-20T14:32:24.237Z,50.64
2023-05-20T14:34:55.218Z,50.63
2023-05-20T14:37:27.467Z,50.77
2023-05-20T14:39:58.382Z,50.40
2023-05-20T14:42:29.531Z,50.50
2023-05-20T14:45:00.368Z,50.61
2023-05-20T14:47:31.447Z,50.63
2023-05-20T14:50:02.300Z,50.68
2023-05-20T14:52:33.179Z,50.52
2023-05-20T14:55:04.525Z,50.46
2023-05-20T14:57:35.424Z,50.52
2023-05-20T15:00:07.038Z,50.42
2023-05-20T15:02:38.099Z,50.29
2023-05-20T15:05:12.302Z,50.15
2023-05-20T15:07:44.730Z,50.11
2023-05-20T15:10:15.772Z,50.12
2023-05-20T15:12:46.623Z,50.31
2023-05-20T15:15:17.605Z,50.27
2023-05-20T15:17:48.568Z,50.33
2023-05-20T15:20:19.431Z,50.29
2023-05-20T15:22:50.291Z,50.23
2023-05-20T15:25:21.145Z,50.17
2023-05-20T15:27:51.848Z,50.17
2023-05-20T15:30:23.456Z,50.20
2023-05-20T15:32:54.305Z,50.30
2023-05-20T15:35:25.187Z,50.20
2023-05-20T15:37:56.064Z,50.08
2023-05-20T15:40:26.915Z,50.01
2023-05-20T15:42:58.535Z,49.88
2023-05-20T15:45:29.310Z,50.12
2023-05-20T15:48:00.296Z,50.09
2023-05-20T15:50:31.220Z,50.07
2023-05-20T15:53:02.015Z,50.06
2023-05-20T15:55:32.769Z,50.19
2023-05-20T15:58:03.753Z,50.14
2023-05-20T16:00:35.043Z,50.13
2023-05-20T16:03:06.299Z,50.20
2023-05-20T16:05:37.539Z,50.12
2023-05-20T16:08:08.434Z,50.11
2023-05-20T16:10:39.325Z,50.22
2023-05-20T16:13:10.188Z,50.13
2023-05-20T16:15:41.039Z,49.95
2023-05-20T16:18:12.062Z,50.14
2023-05-20T16:20:42.850Z,50.04
2023-05-20T16:23:13.740Z,49.95
2023-05-20T16:25:44.778Z,49.97
2023-05-20T16:28:15.900Z,49.96
2023-05-20T16:30:46.810Z,49.97
2023-05-20T16:33:18.520Z,49.81
2023-05-20T16:35:49.330Z,49.95
2023-05-20T16:38:20.449Z,49.99
2023-05-20T16:40:51.364Z,49.95
2023-05-20T16:43:22.229Z,49.99
2023-05-20T16:45:54.348Z,50.14
2023-05-20T16:48:25.817Z,50.05
2023-05-20T16:50:56.738Z,49.98
2023-05-20T16:53:27.566Z,49.99
2023-05-20T16:55:58.312Z,50.04
2023-05-20T16:58:29.134Z,50.09
2023-05-20T17:01:00.034Z,50.08
2023-05-20T17:03:31.095Z,50.02
2023-05-20T17:06:02.740Z,50.08
2023-05-20T17:08:33.666Z,50.16
2023-05-20T17:11:04.600Z,50.16
2023-05-20T17:13:35.392Z,50.16
2023-05-20T17:16:08.648Z,50.30
2023-05-20T17:18:40.673Z,50.36
2023-05-20T17:21:11.465Z,50.27
2023-05-20T17:23:42.437Z,50.42
2023-05-20T17:26:13.242Z,50.47
2023-05-20T17:28:44.209Z,50.46
2023-05-20T17:31:15.220Z,50.51
2023-05-20T17:33:46.363Z,50.60
2023-05-20T17:36:17.685Z,50.55
2023-05-20T17:38:48.485Z,50.69
2023-05-20T17:41:19.690Z,50.61
2023-05-20T17:43:50.849Z,50.72
2023-05-20T17:46:21.796Z,50.80
2023-05-20T17:48:52.662Z,50.75
2023-05-20T17:51:23.549Z,50.71
2023-05-20T17:53:54.389Z,50.94
2023-05-20T17:56:25.273Z,50.99
2023-05-20T17:58:56.422Z,50.97
2023-05-20T18:01:27.242Z,51.00
2023-05-20T18:04:00.302Z,51.22
2023-05-20T18:06:34.740Z,51.10
2023-05-20T18:09:06.173Z,51.17
2023-05-20T18:11:38.429Z,51.26
2023-05-20T18:14:09.312Z,51.30
2023-05-20T18:16:40.251Z,51.51
2023-05-20T18:19:11.217Z,51.48
2023-05-20T18:21:42.151Z,51.55
2023-05-20T18:24:16.571Z,51.65
2023-05-20T18:26:48.302Z,51.68
2023-05-20T18:29:19.178Z,51.68
2023-05-20T18:31:50.238Z,51.70
2023-05-20T18:34:21.153Z,51.89
2023-05-20T18:36:52.060Z,51.85
2023-05-20T18:39:22.830Z,51.91
2023-05-20T18:41:53.580Z,51.95
2023-05-20T18:44:24.493Z,51.99
2023-05-20T18:46:55.377Z,51.99
2023-05-20T18:49:26.422Z,52.01
2023-05-20T18:51:57.284Z,52.10
2023-05-20T18:54:28.264Z,52.09
2023-05-20T18:56:59.113Z,52.19
2023-05-20T18:59:30.230Z,52.14
2023-05-20T19:02:01.283Z,52.15
2023-05-20T19:04:32.468Z,52.20
2023-05-20T19:07:03.817Z,52.22
2023-05-20T19:09:34.633Z,52.26
2023-05-20T19:12:06.838Z,52.36
2023-05-20T19:14:37.733Z,52.41
2023-05-20T19:17:08.718Z,52.44
2023-05-20T19:19:39.524Z,52.57
2023-05-20T19:22:10.379Z,52.49
2023-05-20T19:24:41.089Z,52.54
2023-05-20T19:27:11.829Z,52.51
2023-05-20T19:29:42.537Z,52.59
2023-05-20T19:32:13.281Z,52.64
2023-05-20T19:34:44.352Z,52.70
2023-05-20T19:37:15.165Z,52.70
2023-05-20T19:39:46.117Z,52.80
2023-05-20T19:42:16.943Z,52.78
2023-05-20T19:44:47.720Z,52.80
2023-05-20T19:47:18.492Z,52.89
2023-05-20T19:49:49.332Z,52.90
2023-05-20T19:52:20.434Z,52.92
2023-05-20T19:54:51.213Z,52.96
2023-05-20T19:57:21.934Z,52.96
2023-05-20T19:59:53.692Z,53.10
2023-05-20T20:02:24.804Z,53.02
2023-05-20T20:04:55.977Z,53.12
2023-05-20T20:07:27.500Z,53.14
2023-05-20T20:09:58.354Z,53.23
2023-05-20T20:12:29.245Z,53.14
2023-05-20T20:15:00.110Z,53.18
2023-05-20T20:17:33.910Z,53.30
2023-05-20T20:20:07.384Z,53.32
2023-05-20T20:22:38.233Z,53.35
2023-05-20T20:25:09.810Z,53.36
2023-05-20T20:27:41.558Z,53.40
2023-05-20T20:30:13.499Z,53.43
2023-05-20T20:32:44.368Z,53.50
2023-05-20T20:35:16.064Z,53.44
2023-05-20T20:37:46.780Z,53.55
2023-05-20T20:40:18.051Z,53.51
2023-05-20T20:42:49.076Z,53.59
2023-05-20T20:45:22.929Z,53.67
2023-05-20T20:47:54.827Z,53.67
2023-05-20T20:50:26.168Z,53.68
2023-05-20T20:52:57.671Z,53.75
2023-05-20T20:55:30.763Z,53.80
2023-05-20T20:58:02.931Z,53.79
2023-05-20T21:00:33.955Z,53.87
2023-05-20T21:03:04.894Z,53.99
2023-05-20T21:05:37.558Z,53.92
2023-05-20T21:08:09.981Z,53.98
2023-05-20T21:10:40.774Z,53.98
2023-05-20T21:13:11.589Z,54.08
2023-05-20T21:15:43.205Z,54.15
2023-05-20T21:18:18.238Z,54.12
2023-05-20T21:20:48.893Z,54.12
2023-05-20T21:23:20.075Z,54.24
2023-05-20T21:25:50.938Z,54.23
2023-05-20T21:28:21.737Z,54.20
2023-05-20T21:30:52.643Z,54.19
2023-05-20T21:33:23.429Z,54.31
2023-05-20T21:35:54.554Z,54.35
2023-05-20T21:38:26.045Z,54.41
2023-05-20T21:40:57.659Z,54.33
2023-05-20T21:43:28.515Z,54.35
2023-05-20T21:45:59.404Z,54.38
2023-05-20T21:48:30.131Z,54.52
2023-05-20T21:51:01.082Z,54.51
2023-05-20T21:53:31.912Z,54.29
2023-05-20T21:56:02.966Z,54.40
2023-05-20T21:58:36.074Z,54.43
2023-05-20T22:01:07.521Z,54.37
2023-05-20T22:03:39.960Z,54.52
2023-05-20T22:06:11.297Z,54.44
2023-05-20T22:08:42.169Z,54.46
2023-05-20T22:11:13.040Z,54.50
2023-05-20T22:13:45.570Z,54.53
2023-05-20T22:16:16.924Z,54.51
2023-05-20T22:18:49.898Z,54.63
2023-05-20T22:21:21.609Z,54.61
2023-05-20T22:23:52.542Z,54.58
2023-05-20T22:26:23.319Z,54.68
2023-05-20T22:28:54.158Z,54.66
2023-05-20T22:31:26.438Z,54.57
2023-05-20T22:33:57.376Z,54.74
2023-05-20T22:36:34.852Z,54.72
2023-05-20T22:39:07.194Z,54.74
2023-05-20T22:41:38.003Z,54.75
2023-05-20T22:44:08.859Z,54.73
2023-05-20T22:46:39.870Z,54.84
2023-05-20T22:49:12.976Z,54.78
2023-05-20T22:51:43.902Z,54.78
2023-05-20T22:54:14.782Z,54.78
2023-05-20T22:56:45.609Z,54.82
2023-05-20T22:59:16.505Z,54.78
2023-05-20T23:01:47.284Z,54.87
2023-05-20T23:04:18.121Z,54.85
2023-05-20T23:06:49.134Z,54.90
2023-05-20T23:09:19.976Z,55.02
2023-05-20T23:11:50.784Z,55.00
2023-05-20T23:14:21.587Z,55.03
2023-05-20T23:16:52.348Z,55.01
2023-05-20T23:19:23.297Z,55.09
2023-05-20T23:21:54.076Z,55.15
2023-05-20T23:24:24.790Z,55.18
2023-05-20T23:26:55.622Z,55.16
2023-05-20T23:29:27.029Z,55.18
2023-05-20T23:31:57.856Z,55.23
2023-05-20T23:34:30.927Z,55.24
2023-05-20T23:37:01.758Z,55.19
2023-05-20T23:39:32.422Z,55.25
2023-05-20T23:42:03.362Z,55.31
2023-05-20T23:44:34.197Z,55.31
2023-05-20T23:47:07.794Z,55.28
2023-05-20T23:49:38.650Z,55.25
2023-05-20T23:52:09.547Z,55.34
2023-05-20T23:54:40.353Z,55.36
2023-05-20T23:57:11.913Z,55.43
2023-05-20T23:59:43.155Z,55.38
